sensor_id;sensor_type;location;lat;lon;timestamp;P1;durP1;ratioP1;P2;durP2;ratioP2
17662;SDS011;8950;56.892;15.090;2023-02-28T00:00:04;2.72;;;2.53;;
17662;SDS011;8950;56.892;15.090;2023-02-28T00:02:35;2.42;;;2.22;;
17662;SDS011;8950;56.892;15.090;2023-02-28T00:05:01;3.20;;;2.90;;
17662;SDS011;8950;56.892;15.090;2023-02-28T00:07:28;3.90;;;3.50;;
17662;SDS011;8950;56.892;15.090;2023-02-28T00:09:55;3.90;;;3.28;;
17662;SDS011;8950;56.892;15.090;2023-02-28T00:12:23;3.88;;;3.47;;
17662;SDS011;8950;56.892;15.090;2023-02-28T00:14:49;1.70;;;1.60;;
17662;SDS011;8950;56.892;15.090;2023-02-28T00:17:15;1.77;;;1.67;;
17662;SDS011;8950;56.892;15.090;2023-02-28T00:19:42;2.35;;;2.17;;
17662;SDS011;8950;56.892;15.090;2023-02-28T00:22:09;2.70;;;2.50;;
17662;SDS011;8950;56.892;15.090;2023-02-28T00:24:36;2.05;;;1.95;;
17662;SDS011;8950;56.892;15.090;2023-02-28T00:27:02;1.80;;;1.70;;
17662;SDS011;8950;56.892;15.090;2023-02-28T00:29:30;1.70;;;1.60;;
17662;SDS011;8950;56.892;15.090;2023-02-28T00:31:56;1.70;;;1.60;;
17662;SDS011;8950;56.892;15.090;2023-02-28T00:34:23;1.95;;;1.85;;
17662;SDS011;8950;56.892;15.090;2023-02-28T00:36:49;1.60;;;1.50;;
17662;SDS011;8950;56.892;15.090;2023-02-28T00:39:16;1.50;;;1.40;;
17662;SDS011;8950;56.892;15.090;2023-02-28T00:41:42;1.73;;;1.63;;
17662;SDS011;8950;56.892;15.090;2023-02-28T00:44:09;1.73;;;1.63;;
17662;SDS011;8950;56.892;15.090;2023-02-28T00:46:37;1.92;;;1.80;;
17662;SDS011;8950;56.892;15.090;2023-02-28T00:49:03;1.65;;;1.55;;
17662;SDS011;8950;56.892;15.090;2023-02-28T00:51:30;1.50;;;1.40;;
17662;SDS011;8950;56.892;15.090;2023-02-28T00:53:56;2.20;;;1.70;;
17662;SDS011;8950;56.892;15.090;2023-02-28T00:56:23;1.60;;;1.50;;
17662;SDS011;8950;56.892;15.090;2023-02-28T00:58:49;1.70;;;1.60;;
17662;SDS011;8950;56.892;15.090;2023-02-28T01:01:16;1.60;;;1.50;;
17662;SDS011;8950;56.892;15.090;2023-02-28T01:03:44;1.52;;;1.40;;
17662;SDS011;8950;56.892;15.090;2023-02-28T01:06:11;1.77;;;1.67;;
17662;SDS011;8950;56.892;15.090;2023-02-28T01:08:37;1.60;;;1.50;;
17662;SDS011;8950;56.892;15.090;2023-02-28T01:11:07;1.60;;;1.50;;
17662;SDS011;8950;56.892;15.090;2023-02-28T01:13:33;1.60;;;1.50;;
17662;SDS011;8950;56.892;15.090;2023-02-28T01:15:59;1.65;;;1.55;;
17662;SDS011;8950;56.892;15.090;2023-02-28T01:18:26;1.60;;;1.50;;
17662;SDS011;8950;56.892;15.090;2023-02-28T01:20:54;1.60;;;1.50;;
17662;SDS011;8950;56.892;15.090;2023-02-28T01:23:21;1.60;;;1.50;;
17662;SDS011;8950;56.892;15.090;2023-02-28T01:25:48;1.35;;;1.30;;
17662;SDS011;8950;56.892;15.090;2023-02-28T01:28:15;1.60;;;1.50;;
17662;SDS011;8950;56.892;15.090;2023-02-28T01:30:41;1.58;;;1.48;;
17662;SDS011;8950;56.892;15.090;2023-02-28T01:33:08;1.50;;;1.40;;
17662;SDS011;8950;56.892;15.090;2023-02-28T01:35:35;1.60;;;1.50;;
17662;SDS011;8950;56.892;15.090;2023-02-28T01:38:03;1.83;;;1.73;;
17662;SDS011;8950;56.892;15.090;2023-02-28T01:40:29;1.70;;;1.60;;
17662;SDS011;8950;56.892;15.090;2023-02-28T01:42:55;1.60;;;1.50;;
17662;SDS011;8950;56.892;15.090;2023-02-28T01:45:22;1.90;;;1.40;;
17662;SDS011;8950;56.892;15.090;2023-02-28T01:47:49;1.75;;;1.65;;
17662;SDS011;8950;56.892;15.090;2023-02-28T01:50:18;2.55;;;1.63;;
17662;SDS011;8950;56.892;15.090;2023-02-28T01:52:45;2.58;;;1.48;;
17662;SDS011;8950;56.892;15.090;2023-02-28T01:55:13;1.92;;;1.70;;
17662;SDS011;8950;56.892;15.090;2023-02-28T01:57:41;1.60;;;1.50;;
17662;SDS011;8950;56.892;15.090;2023-02-28T02:00:09;1.60;;;1.50;;
17662;SDS011;8950;56.892;15.090;2023-02-28T02:02:38;1.65;;;1.55;;
17662;SDS011;8950;56.892;15.090;2023-02-28T02:05:06;1.90;;;1.80;;
17662;SDS011;8950;56.892;15.090;2023-02-28T02:07:34;1.90;;;1.80;;
17662;SDS011;8950;56.892;15.090;2023-02-28T02:10:03;2.15;;;1.95;;
17662;SDS011;8950;56.892;15.090;2023-02-28T02:12:34;2.00;;;1.90;;
17662;SDS011;8950;56.892;15.090;2023-02-28T02:15:05;2.20;;;1.90;;
17662;SDS011;8950;56.892;15.090;2023-02-28T02:17:36;6.05;;;2.70;;
17662;SDS011;8950;56.892;15.090;2023-02-28T02:23:02;3.15;;;2.72;;
17662;SDS011;8950;56.892;15.090;2023-02-28T02:25:33;2.63;;;2.42;;
17662;SDS011;8950;56.892;15.090;2023-02-28T02:36:32;3.10;;;2.30;;
17662;SDS011;8950;56.892;15.090;2023-02-28T02:39:00;2.97;;;2.42;;
17662;SDS011;8950;56.892;15.090;2023-02-28T02:41:33;4.35;;;2.53;;
17662;SDS011;8950;56.892;15.090;2023-02-28T02:44:02;2.60;;;2.40;;
17662;SDS011;8950;56.892;15.090;2023-02-28T02:46:30;2.80;;;2.53;;
17662;SDS011;8950;56.892;15.090;2023-02-28T02:48:57;2.30;;;2.20;;
17662;SDS011;8950;56.892;15.090;2023-02-28T02:51:25;2.60;;;2.50;;
17662;SDS011;8950;56.892;15.090;2023-02-28T02:53:55;2.80;;;2.60;;
17662;SDS011;8950;56.892;15.090;2023-02-28T02:56:23;2.80;;;2.60;;
17662;SDS011;8950;56.892;15.090;2023-02-28T02:58:51;3.03;;;2.30;;
17662;SDS011;8950;56.892;15.090;2023-02-28T03:01:20;2.17;;;2.08;;
17662;SDS011;8950;56.892;15.090;2023-02-28T03:03:52;1.70;;;1.60;;
17662;SDS011;8950;56.892;15.090;2023-02-28T03:06:19;2.00;;;1.90;;
17662;SDS011;8950;56.892;15.090;2023-02-28T03:08:46;2.20;;;2.10;;
17662;SDS011;8950;56.892;15.090;2023-02-28T03:11:14;1.90;;;1.80;;
17662;SDS011;8950;56.892;15.090;2023-02-28T03:13:52;1.83;;;1.73;;
17662;SDS011;8950;56.892;15.090;2023-02-28T03:19:16;2.00;;;1.90;;
17662;SDS011;8950;56.892;15.090;2023-02-28T03:21:49;1.92;;;1.83;;
17662;SDS011;8950;56.892;15.090;2023-02-28T03:24:19;1.90;;;1.80;;
17662;SDS011;8950;56.892;15.090;2023-02-28T03:26:52;1.92;;;1.83;;
17662;SDS011;8950;56.892;15.090;2023-02-28T03:29:21;1.80;;;1.70;;
17662;SDS011;8950;56.892;15.090;2023-02-28T03:31:50;1.73;;;1.63;;
17662;SDS011;8950;56.892;15.090;2023-02-28T03:34:19;1.58;;;1.48;;
17662;SDS011;8950;56.892;15.090;2023-02-28T03:36:47;1.70;;;1.60;;
17662;SDS011;8950;56.892;15.090;2023-02-28T03:39:16;1.70;;;1.60;;
17662;SDS011;8950;56.892;15.090;2023-02-28T03:41:44;1.73;;;1.63;;
17662;SDS011;8950;56.892;15.090;2023-02-28T03:44:16;1.63;;;1.52;;
17662;SDS011;8950;56.892;15.090;2023-02-28T03:46:45;1.55;;;1.45;;
17662;SDS011;8950;56.892;15.090;2023-02-28T03:49:14;1.60;;;1.50;;
17662;SDS011;8950;56.892;15.090;2023-02-28T03:51:42;1.67;;;1.58;;
17662;SDS011;8950;56.892;15.090;2023-02-28T03:54:09;1.63;;;1.52;;
17662;SDS011;8950;56.892;15.090;2023-02-28T03:56:39;1.48;;;1.40;;
17662;SDS011;8950;56.892;15.090;2023-02-28T03:59:08;2.05;;;1.70;;
17662;SDS011;8950;56.892;15.090;2023-02-28T04:01:39;1.52;;;1.42;;
17662;SDS011;8950;56.892;15.090;2023-02-28T04:04:07;1.60;;;1.50;;
17662;SDS011;8950;56.892;15.090;2023-02-28T04:06:34;1.60;;;1.50;;
17662;SDS011;8950;56.892;15.090;2023-02-28T04:09:00;1.50;;;1.40;;
17662;SDS011;8950;56.892;15.090;2023-02-28T04:11:27;1.40;;;1.30;;
17662;SDS011;8950;56.892;15.090;2023-02-28T04:13:56;1.20;;;1.20;;
17662;SDS011;8950;56.892;15.090;2023-02-28T04:16:23;1.50;;;1.40;;
17662;SDS011;8950;56.892;15.090;2023-02-28T04:18:50;1.60;;;1.50;;
17662;SDS011;8950;56.892;15.090;2023-02-28T04:21:17;1.50;;;1.40;;
17662;SDS011;8950;56.892;15.090;2023-02-28T04:23:46;1.50;;;1.40;;
17662;SDS011;8950;56.892;15.090;2023-02-28T04:26:13;1.60;;;1.50;;
17662;SDS011;8950;56.892;15.090;2023-02-28T04:28:39;1.33;;;1.30;;
17662;SDS011;8950;56.892;15.090;2023-02-28T04:31:05;1.90;;;1.50;;
17662;SDS011;8950;56.892;15.090;2023-02-28T04:33:32;1.70;;;1.60;;
17662;SDS011;8950;56.892;15.090;2023-02-28T04:36:00;1.80;;;1.50;;
17662;SDS011;8950;56.892;15.090;2023-02-28T04:38:27;1.80;;;1.70;;
17662;SDS011;8950;56.892;15.090;2023-02-28T04:40:56;2.40;;;2.20;;
17662;SDS011;8950;56.892;15.090;2023-02-28T04:43:22;2.45;;;2.25;;
17662;SDS011;8950;56.892;15.090;2023-02-28T04:45:49;1.80;;;1.70;;
17662;SDS011;8950;56.892;15.090;2023-02-28T04:48:15;1.83;;;1.73;;
17662;SDS011;8950;56.892;15.090;2023-02-28T04:50:42;1.80;;;1.70;;
17662;SDS011;8950;56.892;15.090;2023-02-28T04:53:10;1.80;;;1.70;;
17662;SDS011;8950;56.892;15.090;2023-02-28T04:55:36;2.03;;;1.92;;
17662;SDS011;8950;56.892;15.090;2023-02-28T04:58:05;2.55;;;2.35;;
17662;SDS011;8950;56.892;15.090;2023-02-28T05:00:31;2.10;;;2.00;;
17662;SDS011;8950;56.892;15.090;2023-02-28T05:02:57;1.90;;;1.80;;
17662;SDS011;8950;56.892;15.090;2023-02-28T05:05:24;1.50;;;1.40;;
17662;SDS011;8950;56.892;15.090;2023-02-28T05:07:50;1.85;;;1.60;;
17662;SDS011;8950;56.892;15.090;2023-02-28T05:10:20;1.60;;;1.50;;
17662;SDS011;8950;56.892;15.090;2023-02-28T05:12:47;1.80;;;1.70;;
17662;SDS011;8950;56.892;15.090;2023-02-28T05:15:14;1.95;;;1.85;;
17662;SDS011;8950;56.892;15.090;2023-02-28T05:17:40;2.03;;;1.92;;
17662;SDS011;8950;56.892;15.090;2023-02-28T05:20:09;1.85;;;1.75;;
17662;SDS011;8950;56.892;15.090;2023-02-28T05:22:36;2.60;;;2.40;;
17662;SDS011;8950;56.892;15.090;2023-02-28T05:25:02;3.95;;;2.80;;
17662;SDS011;8950;56.892;15.090;2023-02-28T05:27:31;3.47;;;3.17;;
17662;SDS011;8950;56.892;15.090;2023-02-28T05:29:57;4.75;;;3.58;;
17662;SDS011;8950;56.892;15.090;2023-02-28T05:32:24;2.97;;;2.78;;
17662;SDS011;8950;56.892;15.090;2023-02-28T05:34:50;2.72;;;2.53;;
17662;SDS011;8950;56.892;15.090;2023-02-28T05:37:17;3.50;;;3.20;;
17662;SDS011;8950;56.892;15.090;2023-02-28T05:39:43;2.95;;;2.75;;
17662;SDS011;8950;56.892;15.090;2023-02-28T05:42:10;3.00;;;2.80;;
17662;SDS011;8950;56.892;15.090;2023-02-28T05:44:38;3.53;;;3.30;;
17662;SDS011;8950;56.892;15.090;2023-02-28T05:47:04;2.90;;;2.70;;
17662;SDS011;8950;56.892;15.090;2023-02-28T05:49:30;4.55;;;3.60;;
17662;SDS011;8950;56.892;15.090;2023-02-28T05:51:57;5.03;;;3.85;;
17662;SDS011;8950;56.892;15.090;2023-02-28T05:54:23;5.40;;;4.10;;
17662;SDS011;8950;56.892;15.090;2023-02-28T05:56:49;7.45;;;4.40;;
17662;SDS011;8950;56.892;15.090;2023-02-28T05:59:16;7.05;;;3.30;;
17662;SDS011;8950;56.892;15.090;2023-02-28T06:01:45;4.93;;;3.70;;
17662;SDS011;8950;56.892;15.090;2023-02-28T06:04:13;4.05;;;3.75;;
17662;SDS011;8950;56.892;15.090;2023-02-28T06:06:42;4.85;;;3.33;;
17662;SDS011;8950;56.892;15.090;2023-02-28T06:09:09;4.72;;;2.80;;
17662;SDS011;8950;56.892;15.090;2023-02-28T06:11:36;4.53;;;3.53;;
17662;SDS011;8950;56.892;15.090;2023-02-28T06:14:02;4.50;;;4.20;;
17662;SDS011;8950;56.892;15.090;2023-02-28T06:16:30;3.30;;;3.10;;
17662;SDS011;8950;56.892;15.090;2023-02-28T06:18:59;3.20;;;3.00;;
17662;SDS011;8950;56.892;15.090;2023-02-28T06:21:26;2.58;;;2.40;;
17662;SDS011;8950;56.892;15.090;2023-02-28T06:23:53;2.70;;;2.50;;
17662;SDS011;8950;56.892;15.090;2023-02-28T06:26:19;2.55;;;2.35;;
17662;SDS011;8950;56.892;15.090;2023-02-28T06:28:46;3.08;;;2.58;;
17662;SDS011;8950;56.892;15.090;2023-02-28T06:31:13;3.00;;;2.70;;
17662;SDS011;8950;56.892;15.090;2023-02-28T06:33:41;2.60;;;2.40;;
17662;SDS011;8950;56.892;15.090;2023-02-28T06:36:10;2.90;;;2.70;;
17662;SDS011;8950;56.892;15.090;2023-02-28T06:38:36;2.47;;;2.38;;
17662;SDS011;8950;56.892;15.090;2023-02-28T06:41:03;2.78;;;2.58;;
17662;SDS011;8950;56.892;15.090;2023-02-28T06:43:32;2.67;;;2.47;;
17662;SDS011;8950;56.892;15.090;2023-02-28T06:46:00;2.35;;;2.15;;
17662;SDS011;8950;56.892;15.090;2023-02-28T06:48:27;2.10;;;2.00;;
17662;SDS011;8950;56.892;15.090;2023-02-28T06:51:00;1.70;;;1.60;;
17662;SDS011;8950;56.892;15.090;2023-02-28T06:53:28;1.80;;;1.70;;
17662;SDS011;8950;56.892;15.090;2023-02-28T06:55:55;1.90;;;1.80;;
17662;SDS011;8950;56.892;15.090;2023-02-28T06:58:21;1.77;;;1.67;;
17662;SDS011;8950;56.892;15.090;2023-02-28T07:00:50;1.70;;;1.60;;
17662;SDS011;8950;56.892;15.090;2023-02-28T07:03:16;1.80;;;1.70;;
17662;SDS011;8950;56.892;15.090;2023-02-28T07:05:43;1.77;;;1.67;;
17662;SDS011;8950;56.892;15.090;2023-02-28T07:08:10;1.90;;;1.80;;
17662;SDS011;8950;56.892;15.090;2023-02-28T07:10:38;1.80;;;1.70;;
17662;SDS011;8950;56.892;15.090;2023-02-28T07:13:04;1.80;;;1.70;;
17662;SDS011;8950;56.892;15.090;2023-02-28T07:15:31;1.80;;;1.70;;
17662;SDS011;8950;56.892;15.090;2023-02-28T07:17:57;1.80;;;1.70;;
17662;SDS011;8950;56.892;15.090;2023-02-28T07:20:24;1.90;;;1.80;;
17662;SDS011;8950;56.892;15.090;2023-02-28T07:22:50;1.65;;;1.55;;
17662;SDS011;8950;56.892;15.090;2023-02-28T07:25:21;1.70;;;1.60;;
17662;SDS011;8950;56.892;15.090;2023-02-28T07:27:49;1.80;;;1.70;;
17662;SDS011;8950;56.892;15.090;2023-02-28T07:30:15;1.80;;;1.70;;
17662;SDS011;8950;56.892;15.090;2023-02-28T07:32:42;2.22;;;2.13;;
17662;SDS011;8950;56.892;15.090;2023-02-28T07:35:09;2.15;;;1.98;;
17662;SDS011;8950;56.892;15.090;2023-02-28T07:37:35;2.40;;;2.20;;
17662;SDS011;8950;56.892;15.090;2023-02-28T07:40:03;2.20;;;2.00;;
17662;SDS011;8950;56.892;15.090;2023-02-28T07:42:32;2.15;;;2.05;;
17662;SDS011;8950;56.892;15.090;2023-02-28T07:47:50;2.13;;;2.03;;
17662;SDS011;8950;56.892;15.090;2023-02-28T07:50:16;2.08;;;1.98;;
17662;SDS011;8950;56.892;15.090;2023-02-28T07:52:43;2.10;;;1.90;;
17662;SDS011;8950;56.892;15.090;2023-02-28T07:55:09;2.17;;;2.00;;
17662;SDS011;8950;56.892;15.090;2023-02-28T07:57:36;2.30;;;2.10;;
17662;SDS011;8950;56.892;15.090;2023-02-28T08:00:03;2.15;;;2.05;;
17662;SDS011;8950;56.892;15.090;2023-02-28T08:02:29;3.03;;;2.10;;
17662;SDS011;8950;56.892;15.090;2023-02-28T08:04:57;2.30;;;2.10;;
17662;SDS011;8950;56.892;15.090;2023-02-28T08:07:24;2.30;;;2.10;;
17662;SDS011;8950;56.892;15.090;2023-02-28T08:09:50;2.20;;;2.00;;
17662;SDS011;8950;56.892;15.090;2023-02-28T08:12:17;2.70;;;2.50;;
17662;SDS011;8950;56.892;15.090;2023-02-28T08:14:43;2.42;;;2.22;;
17662;SDS011;8950;56.892;15.090;2023-02-28T08:17:10;2.17;;;2.00;;
17662;SDS011;8950;56.892;15.090;2023-02-28T08:19:37;2.33;;;2.13;;
17662;SDS011;8950;56.892;15.090;2023-02-28T08:22:05;2.20;;;2.10;;
17662;SDS011;8950;56.892;15.090;2023-02-28T08:24:31;2.38;;;2.17;;
17662;SDS011;8950;56.892;15.090;2023-02-28T08:26:58;2.33;;;2.13;;
17662;SDS011;8950;56.892;15.090;2023-02-28T08:29:24;2.22;;;2.05;;
17662;SDS011;8950;56.892;15.090;2023-02-28T08:31:51;2.20;;;2.10;;
17662;SDS011;8950;56.892;15.090;2023-02-28T08:34:17;2.63;;;2.20;;
17662;SDS011;8950;56.892;15.090;2023-02-28T08:36:44;2.20;;;2.00;;
17662;SDS011;8950;56.892;15.090;2023-02-28T08:39:12;2.22;;;2.03;;
17662;SDS011;8950;56.892;15.090;2023-02-28T08:41:38;2.50;;;2.30;;
17662;SDS011;8950;56.892;15.090;2023-02-28T08:44:06;2.20;;;2.00;;
17662;SDS011;8950;56.892;15.090;2023-02-28T08:46:32;2.90;;;2.30;;
17662;SDS011;8950;56.892;15.090;2023-02-28T08:48:58;2.15;;;2.03;;
17662;SDS011;8950;56.892;15.090;2023-02-28T08:51:27;2.40;;;2.20;;
17662;SDS011;8950;56.892;15.090;2023-02-28T08:53:54;2.08;;;1.98;;
17662;SDS011;8950;56.892;15.090;2023-02-28T08:56:22;2.08;;;1.88;;
17662;SDS011;8950;56.892;15.090;2023-02-28T08:58:49;2.30;;;2.10;;
17662;SDS011;8950;56.892;15.090;2023-02-28T09:01:16;2.15;;;1.95;;
17662;SDS011;8950;56.892;15.090;2023-02-28T09:03:42;2.30;;;2.10;;
17662;SDS011;8950;56.892;15.090;2023-02-28T09:06:09;2.17;;;1.98;;
17662;SDS011;8950;56.892;15.090;2023-02-28T09:08:36;2.13;;;2.00;;
17662;SDS011;8950;56.892;15.090;2023-02-28T09:11:02;2.38;;;2.20;;
17662;SDS011;8950;56.892;15.090;2023-02-28T09:13:31;1.88;;;1.77;;
17662;SDS011;8950;56.892;15.090;2023-02-28T09:15:58;3.13;;;1.98;;
17662;SDS011;8950;56.892;15.090;2023-02-28T09:18:25;2.25;;;1.73;;
17662;SDS011;8950;56.892;15.090;2023-02-28T09:20:52;2.00;;;1.90;;
17662;SDS011;8950;56.892;15.090;2023-02-28T09:23:18;2.42;;;2.20;;
17662;SDS011;8950;56.892;15.090;2023-02-28T09:25:45;2.13;;;1.92;;
17662;SDS011;8950;56.892;15.090;2023-02-28T09:28:12;2.10;;;1.90;;
17662;SDS011;8950;56.892;15.090;2023-02-28T09:30:42;2.00;;;1.90;;
17662;SDS011;8950;56.892;15.090;2023-02-28T09:33:09;1.90;;;1.80;;
17662;SDS011;8950;56.892;15.090;2023-02-28T09:35:36;2.15;;;1.73;;
17662;SDS011;8950;56.892;15.090;2023-02-28T09:38:03;1.70;;;1.60;;
17662;SDS011;8950;56.892;15.090;2023-02-28T09:40:30;1.77;;;1.67;;
17662;SDS011;8950;56.892;15.090;2023-02-28T09:42:57;1.80;;;1.70;;
17662;SDS011;8950;56.892;15.090;2023-02-28T09:45:24;2.13;;;1.83;;
17662;SDS011;8950;56.892;15.090;2023-02-28T09:47:55;1.92;;;1.83;;
17662;SDS011;8950;56.892;15.090;2023-02-28T09:50:29;1.95;;;1.65;;
17662;SDS011;8950;56.892;15.090;2023-02-28T09:52:58;1.77;;;1.58;;
17662;SDS011;8950;56.892;15.090;2023-02-28T09:55:26;1.70;;;1.60;;
17662;SDS011;8950;56.892;15.090;2023-02-28T09:57:54;1.65;;;1.55;;
17662;SDS011;8950;56.892;15.090;2023-02-28T10:00:26;1.60;;;1.50;;
17662;SDS011;8950;56.892;15.090;2023-02-28T10:05:56;1.48;;;1.38;;
17662;SDS011;8950;56.892;15.090;2023-02-28T10:08:25;1.50;;;1.40;;
17662;SDS011;8950;56.892;15.090;2023-02-28T10:10:55;1.35;;;1.30;;
17662;SDS011;8950;56.892;15.090;2023-02-28T10:13:24;1.20;;;1.20;;
17662;SDS011;8950;56.892;15.090;2023-02-28T10:15:51;1.63;;;1.52;;
17662;SDS011;8950;56.892;15.090;2023-02-28T10:18:21;1.58;;;1.48;;
17662;SDS011;8950;56.892;15.090;2023-02-28T10:20:50;1.60;;;1.50;;
17662;SDS011;8950;56.892;15.090;2023-02-28T10:23:20;1.58;;;1.48;;
17662;SDS011;8950;56.892;15.090;2023-02-28T10:25:48;1.38;;;1.27;;
17662;SDS011;8950;56.892;15.090;2023-02-28T10:28:16;1.40;;;1.30;;
17662;SDS011;8950;56.892;15.090;2023-02-28T10:30:44;1.40;;;1.30;;
17662;SDS011;8950;56.892;15.090;2023-02-28T10:33:19;1.40;;;1.30;;
17662;SDS011;8950;56.892;15.090;2023-02-28T10:35:46;1.40;;;1.30;;
17662;SDS011;8950;56.892;15.090;2023-02-28T10:38:15;1.30;;;1.20;;
17662;SDS011;8950;56.892;15.090;2023-02-28T10:40:43;1.50;;;1.40;;
17662;SDS011;8950;56.892;15.090;2023-02-28T10:43:17;1.30;;;1.20;;
17662;SDS011;8950;56.892;15.090;2023-02-28T10:45:51;1.25;;;1.20;;
17662;SDS011;8950;56.892;15.090;2023-02-28T10:48:26;1.40;;;1.30;;
17662;SDS011;8950;56.892;15.090;2023-02-28T10:50:53;1.10;;;1.10;;
17662;SDS011;8950;56.892;15.090;2023-02-28T10:53:25;1.40;;;1.30;;
17662;SDS011;8950;56.892;15.090;2023-02-28T10:55:59;1.40;;;1.30;;
17662;SDS011;8950;56.892;15.090;2023-02-28T10:58:27;1.30;;;1.20;;
17662;SDS011;8950;56.892;15.090;2023-02-28T11:00:54;1.20;;;1.20;;
17662;SDS011;8950;56.892;15.090;2023-02-28T11:03:24;1.30;;;1.20;;
17662;SDS011;8950;56.892;15.090;2023-02-28T11:05:51;1.40;;;1.30;;
17662;SDS011;8950;56.892;15.090;2023-02-28T11:08:18;1.10;;;1.10;;
17662;SDS011;8950;56.892;15.090;2023-02-28T11:10:45;1.10;;;1.10;;
17662;SDS011;8950;56.892;15.090;2023-02-28T11:13:16;1.10;;;1.10;;
17662;SDS011;8950;56.892;15.090;2023-02-28T11:15:45;1.10;;;1.10;;
17662;SDS011;8950;56.892;15.090;2023-02-28T11:18:20;0.93;;;0.93;;
17662;SDS011;8950;56.892;15.090;2023-02-28T11:20:47;1.25;;;1.17;;
17662;SDS011;8950;56.892;15.090;2023-02-28T11:23:14;1.10;;;1.10;;
17662;SDS011;8950;56.892;15.090;2023-02-28T11:25:45;1.05;;;1.05;;
17662;SDS011;8950;56.892;15.090;2023-02-28T11:28:24;1.30;;;1.20;;
17662;SDS011;8950;56.892;15.090;2023-02-28T11:30:59;1.00;;;1.00;;
17662;SDS011;8950;56.892;15.090;2023-02-28T11:33:27;1.00;;;1.00;;
17662;SDS011;8950;56.892;15.090;2023-02-28T11:35:53;1.00;;;1.00;;
17662;SDS011;8950;56.892;15.090;2023-02-28T11:38:23;1.30;;;1.20;;
17662;SDS011;8950;56.892;15.090;2023-02-28T11:40:52;1.00;;;1.00;;
17662;SDS011;8950;56.892;15.090;2023-02-28T11:43:27;1.40;;;1.30;;
17662;SDS011;8950;56.892;15.090;2023-02-28T11:46:00;1.90;;;1.00;;
17662;SDS011;8950;56.892;15.090;2023-02-28T11:48:31;1.30;;;1.20;;
17662;SDS011;8950;56.892;15.090;2023-02-28T11:51:02;1.65;;;1.20;;
17662;SDS011;8950;56.892;15.090;2023-02-28T11:53:39;1.95;;;1.20;;
17662;SDS011;8950;56.892;15.090;2023-02-28T11:56:13;1.30;;;1.20;;
17662;SDS011;8950;56.892;15.090;2023-02-28T11:58:46;1.20;;;1.10;;
17662;SDS011;8950;56.892;15.090;2023-02-28T12:01:18;1.40;;;1.30;;
17662;SDS011;8950;56.892;15.090;2023-02-28T12:03:49;1.15;;;1.15;;
17662;SDS011;8950;56.892;15.090;2023-02-28T12:06:22;1.13;;;1.13;;
17662;SDS011;8950;56.892;15.090;2023-02-28T12:09:00;1.40;;;1.30;;
17662;SDS011;8950;56.892;15.090;2023-02-28T12:11:30;1.40;;;1.30;;
17662;SDS011;8950;56.892;15.090;2023-02-28T12:14:04;1.00;;;1.00;;
17662;SDS011;8950;56.892;15.090;2023-02-28T12:16:35;1.67;;;1.27;;
17662;SDS011;8950;56.892;15.090;2023-02-28T12:19:06;1.10;;;1.10;;
17662;SDS011;8950;56.892;15.090;2023-02-28T12:21:38;1.20;;;1.10;;
17662;SDS011;8950;56.892;15.090;2023-02-28T12:24:22;1.08;;;1.08;;
17662;SDS011;8950;56.892;15.090;2023-02-28T12:26:51;2.45;;;1.13;;
17662;SDS011;8950;56.892;15.090;2023-02-28T12:29:21;1.40;;;1.30;;
17662;SDS011;8950;56.892;15.090;2023-02-28T12:31:51;1.23;;;1.15;;
17662;SDS011;8950;56.892;15.090;2023-02-28T12:34:21;1.10;;;1.10;;
17662;SDS011;8950;56.892;15.090;2023-02-28T12:36:49;1.45;;;1.38;;
17662;SDS011;8950;56.892;15.090;2023-02-28T12:39:18;1.30;;;1.20;;
17662;SDS011;8950;56.892;15.090;2023-02-28T12:41:47;1.27;;;1.20;;
17662;SDS011;8950;56.892;15.090;2023-02-28T12:44:16;1.13;;;1.13;;
17662;SDS011;8950;56.892;15.090;2023-02-28T12:46:45;1.15;;;1.15;;
17662;SDS011;8950;56.892;15.090;2023-02-28T12:49:15;1.20;;;1.10;;
17662;SDS011;8950;56.892;15.090;2023-02-28T12:51:42;1.20;;;1.10;;
17662;SDS011;8950;56.892;15.090;2023-02-28T12:54:12;1.05;;;1.05;;
17662;SDS011;8950;56.892;15.090;2023-02-28T12:56:42;1.20;;;1.20;;
17662;SDS011;8950;56.892;15.090;2023-02-28T12:59:14;1.70;;;1.05;;
17662;SDS011;8950;56.892;15.090;2023-02-28T13:07:14;0.98;;;0.98;;
17662;SDS011;8950;56.892;15.090;2023-02-28T13:09:51;0.95;;;0.95;;
17662;SDS011;8950;56.892;15.090;2023-02-28T13:12:18;1.17;;;1.17;;
17662;SDS011;8950;56.892;15.090;2023-02-28T13:14:45;1.00;;;1.00;;
17662;SDS011;8950;56.892;15.090;2023-02-28T13:17:13;1.10;;;1.10;;
17662;SDS011;8950;56.892;15.090;2023-02-28T13:19:44;1.00;;;1.00;;
17662;SDS011;8950;56.892;15.090;2023-02-28T13:22:18;1.00;;;1.00;;
17662;SDS011;8950;56.892;15.090;2023-02-28T13:24:47;1.10;;;1.10;;
17662;SDS011;8950;56.892;15.090;2023-02-28T13:29:58;1.02;;;1.02;;
17662;SDS011;8950;56.892;15.090;2023-02-28T13:32:28;0.93;;;0.93;;
17662;SDS011;8950;56.892;15.090;2023-02-28T13:37:46;1.00;;;1.00;;
17662;SDS011;8950;56.892;15.090;2023-02-28T13:40:31;2.25;;;0.90;;
17662;SDS011;8950;56.892;15.090;2023-02-28T13:43:02;1.13;;;0.90;;
17662;SDS011;8950;56.892;15.090;2023-02-28T13:45:28;1.13;;;1.00;;
17662;SDS011;8950;56.892;15.090;2023-02-28T13:48:03;1.25;;;1.15;;
17662;SDS011;8950;56.892;15.090;2023-02-28T13:50:33;1.02;;;1.02;;
17662;SDS011;8950;56.892;15.090;2023-02-28T13:53:19;1.00;;;1.00;;
17662;SDS011;8950;56.892;15.090;2023-02-28T13:55:51;1.58;;;1.10;;
17662;SDS011;8950;56.892;15.090;2023-02-28T13:58:26;1.48;;;1.17;;
17662;SDS011;8950;56.892;15.090;2023-02-28T14:01:07;1.05;;;1.00;;
17662;SDS011;8950;56.892;15.090;2023-02-28T14:03:41;1.52;;;0.98;;
17662;SDS011;8950;56.892;15.090;2023-02-28T14:06:15;0.90;;;0.90;;
17662;SDS011;8950;56.892;15.090;2023-02-28T14:08:47;1.25;;;1.15;;
17662;SDS011;8950;56.892;15.090;2023-02-28T14:11:24;0.90;;;0.90;;
17662;SDS011;8950;56.892;15.090;2023-02-28T14:13:50;0.90;;;0.90;;
17662;SDS011;8950;56.892;15.090;2023-02-28T14:16:17;1.13;;;1.02;;
17662;SDS011;8950;56.892;15.090;2023-02-28T14:18:48;1.05;;;1.05;;
17662;SDS011;8950;56.892;15.090;2023-02-28T14:21:19;0.98;;;0.98;;
17662;SDS011;8950;56.892;15.090;2023-02-28T14:23:56;2.28;;;1.00;;
17662;SDS011;8950;56.892;15.090;2023-02-28T14:26:29;1.00;;;1.00;;
17662;SDS011;8950;56.892;15.090;2023-02-28T14:29:02;1.15;;;1.10;;
17662;SDS011;8950;56.892;15.090;2023-02-28T14:31:36;0.95;;;0.95;;
17662;SDS011;8950;56.892;15.090;2023-02-28T14:34:13;1.85;;;1.75;;
17662;SDS011;8950;56.892;15.090;2023-02-28T14:36:43;1.70;;;1.60;;
17662;SDS011;8950;56.892;15.090;2023-02-28T14:39:13;2.70;;;2.10;;
17662;SDS011;8950;56.892;15.090;2023-02-28T14:41:40;1.65;;;1.30;;
17662;SDS011;8950;56.892;15.090;2023-02-28T14:44:14;1.65;;;1.55;;
17662;SDS011;8950;56.892;15.090;2023-02-28T14:46:41;1.00;;;1.00;;
17662;SDS011;8950;56.892;15.090;2023-02-28T14:49:12;0.98;;;0.98;;
17662;SDS011;8950;56.892;15.090;2023-02-28T14:51:39;1.08;;;1.08;;
17662;SDS011;8950;56.892;15.090;2023-02-28T14:54:05;1.10;;;1.10;;
17662;SDS011;8950;56.892;15.090;2023-02-28T14:56:34;1.13;;;1.10;;
17662;SDS011;8950;56.892;15.090;2023-02-28T14:59:01;1.00;;;1.00;;
17662;SDS011;8950;56.892;15.090;2023-02-28T15:01:27;1.75;;;1.63;;
17662;SDS011;8950;56.892;15.090;2023-02-28T15:03:57;1.00;;;1.00;;
17662;SDS011;8950;56.892;15.090;2023-02-28T15:06:24;1.25;;;1.15;;
17662;SDS011;8950;56.892;15.090;2023-02-28T15:11:34;1.00;;;1.00;;
17662;SDS011;8950;56.892;15.090;2023-02-28T15:14:01;0.90;;;0.90;;
17662;SDS011;8950;56.892;15.090;2023-02-28T15:16:29;0.95;;;0.95;;
17662;SDS011;8950;56.892;15.090;2023-02-28T15:18:57;1.10;;;1.00;;
17662;SDS011;8950;56.892;15.090;2023-02-28T15:21:24;0.90;;;0.90;;
17662;SDS011;8950;56.892;15.090;2023-02-28T15:23:52;1.00;;;1.00;;
17662;SDS011;8950;56.892;15.090;2023-02-28T15:26:21;2.80;;;1.10;;
17662;SDS011;8950;56.892;15.090;2023-02-28T15:28:50;0.93;;;0.93;;